Historique des mesures à Cassis (13260), France
Quotidien Résumé Aout 4, 2017 Unités:  Métrique    US   Métrique/US
« Précédent (Jour)
Suivant (Jour) »
Quotidien Hebdomadaire Mensuel Annuel Période au choix
  Maximum: Minimum: Moyenne:
Température: TemperatureC °C 25.8 °C 29.4 °C
Point de rosée: DewpointC °C 12.6 °C 17.9 °C
Humidité: Humidity % 38 % 47 %
Vitesse du vent: 0 km/h 0 km/h 3.9 km/h
Rafales: 0 km/h - -
Vent:- - ESE
Pression: PressurehPa hPa 1007.7 hPa -
Précipitations: 0.0 mm    
Historical Graphs
 
 
Mesures pour : Aout 4, 2017
Heure Temperature Point de rosée Pression Vent Vitesse du vent Rafales Humidité Pluie (par heure) Conditions
TemperatureC °C DewpointC °C PressurehPa hPa Calm     Humidity % HourlyPrecipMM mm SoftwareType W/m2
00:11 28.6 °C 15.4 °C 1010.0 hPa North 4.2 km/h 10.3 km/h 45 % 0.0 mm open2300-1.11 W/m2
01:11 28.8 °C 13.5 °C 1010.0 hPa NW 9.8 km/h 14.5 km/h 39 % 0.0 mm open2300-1.11 W/m2
02:11 28.6 °C 12.9 °C 1009.7 hPa North 2.3 km/h 6.4 km/h 38 % 0.0 mm open2300-1.11 W/m2
03:11 27.9 °C 12.7 °C 1009.4 hPa NNE 3.4 km/h 3.4 km/h 39 % 0.0 mm open2300-1.11 W/m2
04:11 27.8 °C 12.6 °C 1009.4 hPa Calm     39 % 0.0 mm open2300-1.11 W/m2
06:11 26.1 °C 13.5 °C 1009.4 hPa North 2.3 km/h 2.3 km/h 46 % 0.0 mm open2300-1.11 W/m2
07:11 25.8 °C 13.9 °C 1009.4 hPa Calm   1.8 km/h 48 % 0.0 mm open2300-1.11 W/m2
08:11 28.9 °C 15.4 °C 1009.7 hPa ESE 2.9 km/h 2.9 km/h 44 % 0.0 mm open2300-1.11 W/m2
09:11 28.3 °C 18.7 °C 1009.7 hPa SE 2.3 km/h 4.2 km/h 56 % 0.0 mm open2300-1.11 W/m2
10:11 28.1 °C 20.3 °C 1009.7 hPa Calm   9.3 km/h 63 % 0.0 mm open2300-1.11 W/m2
11:11 32.1 °C 22.2 °C 1009.7 hPa SE 3.4 km/h 4.2 km/h 56 % 0.0 mm open2300-1.11 W/m2
12:11 34.3 °C 22.4 °C 1009.7 hPa SE 5.1 km/h 13.2 km/h 50 % 0.0 mm open2300-1.11 W/m2
13:11 35.9 °C 20.9 °C 1009.4 hPa SE 6.4 km/h 7.6 km/h 42 % 0.0 mm open2300-1.11 W/m2
14:11 35.9 °C 23.2 °C 1009.0 hPa South 12.7 km/h 12.7 km/h 48 % 0.0 mm open2300-1.11 W/m2
15:11 35.2 °C 21.1 °C 1008.7 hPa East 6.9 km/h 8 km/h 44 % 0.0 mm open2300-1.11 W/m2
16:11 34.1 °C 21.8 °C 1008.4 hPa SSE 13.2 km/h 13.2 km/h 49 % 0.0 mm open2300-1.11 W/m2
17:11 33.1 °C 21.6 °C 1008.0 hPa SSE 14 km/h 14 km/h 51 % 0.0 mm open2300-1.11 W/m2
18:11 32.4 °C 22.4 °C 1008.0 hPa East 1.8 km/h 9.8 km/h 56 % 0.0 mm open2300-1.11 W/m2
19:11 31.5 °C 23.1 °C 1007.7 hPa SE 1.8 km/h 5.1 km/h 61 % 0.0 mm open2300-1.11 W/m2
20:11 30.8 °C 22.9 °C 1007.7 hPa Calm   4.7 km/h 63 % 0.0 mm open2300-1.11 W/m2
21:11 30.5 °C 21.3 °C 1008.0 hPa Calm   9.3 km/h 58 % 0.0 mm open2300-1.11 W/m2
22:11 30.5 °C 18.6 °C 1008.4 hPa Calm   20.3 km/h 49 % 0.0 mm open2300-1.11 W/m2
23:11 30.2 °C 18.3 °C 1008.0 hPa Calm   5.1 km/h 49 % 0.0 mm open2300-1.11 W/m2
Observations météo à CASSIS
WU-History script by Weather Underground - 1 mb